Atoka, TN (38004)

2:26 AM CST on February 08, 2016 (GMT -0600)
Lochmeade | | Change Station
CLOSE
Current Station
Personal Weather Station
Location: Atoka, TN
Elevation: 413 ft
Nearby Weather Stations
Active Advisory: Flood Advisory

Elev 413 ft 35.43 °N, 89.78 °W | Updated 6 minutes ago

Mostly Cloudy
Mostly Cloudy
44.1 °F
Feels Like 42 °F
N
3.7
Wind Variable Wind from WNW

Today
High -- | Low -- °F
--% Chance of Precip.
Yesterday
High -- | Low -- °F
Precip. -- in
Pressure 29.92 in
Visibility 10.0 miles
Clouds Clear
Windchill 42 °F
Dew Point 26 °F
Humidity 49%
Rainfall 0.00 in
Snow Depth Not available.
6:53 AM 5:33 PM
Waning Crescent, 0% visible
METAR KNQA 080815Z AUTO 28008KT 10SM CLR 07/M02 A2992 RMK
Pressure 29.92 in
Visibility 10.0 miles
Clouds Clear
Windchill 42 °F
Dew Point 26 °F
Humidity 49%
Rainfall 0.00 in
Snow Depth Not available.
6:53 AM 5:33 PM
Waning Crescent, 0% visible
METAR KNQA 080815Z AUTO 28008KT 10SM CLR 07/M02 A2992 RMK

10-Day Weather Forecast

Almanac

Astronomy

Feb. 08, 2016 Rise Set
Actual Time
Civil Twilight
Nautical Twilight
Astronomical Twilight
Moon
Length of Visible Light
Length of Day
Tomorrow will be .
, % of the Moon is Illuminated

Today's Extremes

State Highs State Lows

Community

WunderPhotos

Upload Photos

1,891,412 photos uploaded!

WunderBlog® & News

Nearby

Air Quality

  Air Quality AQ Index Pollutant
Not available.

Snow Depth

Station Depth Elevation

Earthquake Activity

City Distance Mag. Time & Date
Minimum magnitude displayed is 2.5.

Coastal Water Temperatures

Place Temperature

Stations

Nearby Weather Stations

Station Location Temp. Windchill Dew Point Humidity Wind Precip. Elev Updated Type
                   

Watches & Warnings

Flood Advisory
Issued: 7:46 PM CST Feb. 7, 2016 – National Weather Service

The Flood Advisory continues for
the Mississippi River at Osceola
* until Saturday February 13.
* At 07 PM Sunday the stage was 21.3 feet.
* Flood stage is 28.0 feet.
* Forecast... the river will rise to near 25.7 feet Friday February
12.
* At 26.0 feet... in Tennessee, Crutcher Lake Road is flooding near
cold creek. Cold creek is going over its South Bank onto resort
lots just east of Crutcher Lake Road. Water from the lower Forked
Deer river is backing into Open Lake. Cold creek is now flowing
south out of Open Lake. Jones Slough is about to back north over
Grammer Road. Adams Slough has flooded Sam Taylor Road. Many
sloughs are beginning to flood fields. Brandywine Camp begins to go
under water.


Lat... Lon 3582 8996 3582 8956 3560 8979 3539 8995
      3539 9025